LGSA/CHQ METAR and TAF weather

Enter ICAO airport designator
Station Type Date Time Source
LGSA METAR 2018/12/19 10:20 UTC NOAA

LGSA 191020Z 32010KT 9999 FEW018TCU BKN025 12/09 Q1019


Station Type Date Time Source
LGSA Decoded METAR 2018/12/19 10:20 UTC NOAA

Souda Airport , Greece (LGSA) 35-29N 024-07E 151M
Dec 19, 2018 - 05:20 AM EST / 2018.12.19 1020 UTC
Wind: from the NW (320 degrees) at 12 MPH (10 KT):0
Visibility: greater than 7 mile(s):0
Sky conditions: mostly cloudy
Weather: Towering cumulus clouds observed
Temperature: 53 F (12 C)
Dew Point: 48 F (9 C)
Relative Humidity: 81%
Pressure (altimeter): 30.09 in. Hg (1019 hPa)
ob: LGSA 191020Z 32010KT 9999 FEW018TCU BKN025 12/09 Q1019
cycle: 10

Station Type Date Time Source
LGSA TAF 2018/12/19 06:14 UTC NOAA

TAF LGSA 190500Z 1906/2006 35015G25KT 9999 FEW018TCU BKN025 PROB30
TEMPO 1906/1915 5000 RA
BECMG 1915/1917 35010KT


Example: see airport list